This is the latest recevied weather packets stored in our database for station/object KJ4HF. If no packets are shown the sender has not sent any weather packets the latest 10 day(s).
| Time | Temp. | Humidity | Pressure | Rain* | Wind** | Luminosity | Snow |
|---|---|---|---|---|---|---|---|
| 1777759254 | 15.56° C | 39% | 1011.7 hPa | 0 mm | - | 360 W/m² | - |
| 1777756551 | 16.11° C | 38% | 1011.5 hPa | 0 mm | - | 759 W/m² | - |
| 1777756242 | 16.11° C | 35% | 1011.7 hPa | 0 mm | - | 810 W/m² | - |
| 1777755943 | 15.56° C | 37% | 1011.5 hPa | 0 mm | - | 826 W/m² | - |
| 1777754445 | 16.11° C | 39% | 1011.6 hPa | 0 mm | - | 807 W/m² | - |
| 1777754142 | 16.11° C | 35% | 1011.8 hPa | 0 mm | - | 990 W/m² | - |
| 1777752950 | 15° C | 40% | 1012 hPa | 0 mm | - | 376 W/m² | - |
| 1777751166 | 15° C | 43% | 1012.4 hPa | 0 mm | - | 410 W/m² | - |
| 1777750257 | 15° C | 45% | 1012.8 hPa | 0 mm | - | 714 W/m² | - |
| 1777749044 | 13.89° C | 45% | 1012.9 hPa | 0 mm | - | 506 W/m² | - |
| 1777742742 | 13.33° C | 47% | 1013.5 hPa | 0 mm | - | 350 W/m² | - |
| 1777742153 | 13.33° C | 49% | 1013.6 hPa | 0 mm | - | 288 W/m² | - |
| 1777741841 | 13.33° C | 50% | 1013.6 hPa | 0 mm | - | 274 W/m² | - |
| 1777741252 | 13.33° C | 50% | 1013.6 hPa | 0 mm | - | 297 W/m² | - |
| 1777739142 | 12.78° C | 58% | 1014.1 hPa | 0 mm | - | 278 W/m² | - |
| 1777738844 | 12.78° C | 51% | 1014.2 hPa | 0 mm | - | 304 W/m² | - |
| 1777738241 | 12.78° C | 57% | 1014.1 hPa | 0 mm | - | 373 W/m² | - |
| 1777735543 | 11.67° C | 65% | 1015.2 hPa | 0 mm | - | 139 W/m² | - |
| 1777734641 | 12.22° C | 67% | 1014.6 hPa | 0 mm | - | 93 W/m² | - |
| 1777734086 | 12.22° C | 70% | 1014.6 hPa | 0 mm | - | 93 W/m² | - |
| 1777733741 | 12.22° C | 71% | 1014.6 hPa | 0 mm | - | 86 W/m² | - |
| 1777733446 | 12.22° C | 70% | 1014.2 hPa | 0 mm | - | 123 W/m² | - |
| 1777733154 | 12.78° C | 71% | 1014.3 hPa | 0 mm | - | 128 W/m² | - |
| 1777730743 | 12.22° C | 74% | 1014.2 hPa | 0 mm | - | 105 W/m² | - |
| 1777729245 | 12.22° C | 73% | 1013.9 hPa | 0 mm | - | 120 W/m² | - |
* Rain latest hour (hover to see other rain measurements)
** Current wind speed in m/s (hover to see current wind gust speed)